Teofilo Otoni, Brazil
Current Conditions -  °F | °C
As of 10:00 AM on Thursday 23 Oct 2014 (Local Time) from SBMK Reporting Station
Few Clouds Few Clouds  
Wind Chill: 75°   Ceiling: Unl
Heat Index: 75°   Visibility: 6mi
Dew Point: 57°   Wind: 7mph
Humidity: 53%   Direction: 110°ESE
Pressure: 30.18"   Gusts: NA
Location:  17.87°S, 41.5°W
Report Text: SBMK 231200Z 11006KT 060V160 9999 FEW035 24/14 Q1022
Loading
Personal Weather Stations






























Interactive Weather Map
Tropical Storm Tracking
New forecast layout! Learn more

10-Day Weather Forecast

Advertisements
Track Severe Weather on mobile